Time;durP1;ratioP1;P1;durP2;ratioP2;P2;SDS_P1;SDS_P2;PMS_P1;PMS_P2;Temp;Humidity;BMP_temperature;BMP_pressure;BME280_temperature;BME280_humidity;BME280_pressure;Samples;Min_cycle;Max_cycle;Signal;HPM_P1;HPM_P2
2023/10/20 00:01:34;;;;;;;16.02;12.75;;;31.30;1.00;;;;;;5073286;28;20017;-60
2023/10/20 00:03:59;;;;;;;14.77;12.00;;;31.40;1.00;;;;;;5073556;28;20021;-60
2023/10/20 00:06:44;;;;;;;14.07;12.43;;;31.40;1.00;;;;;;5055248;28;20025;-60
2023/10/20 00:09:14;;;;;;;13.93;12.43;;;31.30;1.00;;;;;;5059923;28;20095;-60
2023/10/20 00:11:41;;;;;;;12.30;11.10;;;31.40;1.00;;;;;;5072955;28;20020;-60
2023/10/20 00:14:06;;;;;;;12.90;11.25;;;31.40;1.00;;;;;;5072951;28;20032;-60
2023/10/20 00:16:32;;;;;;;12.23;10.85;;;31.40;1.00;;;;;;5073123;28;20020;-60
2023/10/20 00:19:01;;;;;;;12.00;10.70;;;31.40;1.00;;;;;;5071604;28;20477;-60
2023/10/20 00:21:26;;;;;;;10.85;9.75;;;31.40;1.00;;;;;;5072962;28;20052;-60
2023/10/20 00:23:52;;;;;;;10.15;9.15;;;31.40;1.00;;;;;;5072742;28;20105;-60
2023/10/20 00:26:18;;;;;;;11.68;9.88;;;31.40;1.00;;;;;;5072818;28;20362;-60
2023/10/20 00:28:44;;;;;;;11.63;10.43;;;31.40;1.00;;;;;;5072815;28;20083;-60
2023/10/20 00:31:11;;;;;;;10.70;9.65;;;31.40;1.00;;;;;;5072793;28;20035;-60
2023/10/20 00:33:38;;;;;;;12.45;11.15;;;31.40;1.00;;;;;;5065687;28;20104;-60
2023/10/20 00:36:04;;;;;;;12.48;11.18;;;31.40;1.00;;;;;;5072655;28;20021;-60
2023/10/20 00:38:29;;;;;;;13.05;11.70;;;31.40;1.00;;;;;;5068986;28;20043;-60
2023/10/20 00:40:58;;;;;;;13.95;12.55;;;31.40;1.00;;;;;;5058736;28;20016;-60
2023/10/20 00:43:37;;;;;;;15.00;12.80;;;31.40;1.00;;;;;;5068388;28;20429;-60
2023/10/20 00:46:04;;;;;;;14.90;13.25;;;31.40;1.00;;;;;;5065049;28;20032;-60
2023/10/20 00:48:31;;;;;;;15.10;12.98;;;31.40;1.00;;;;;;5072450;28;20082;-60
2023/10/20 00:50:59;;;;;;;16.40;13.75;;;31.40;1.00;;;;;;5061948;28;20082;-60
2023/10/20 00:53:27;;;;;;;18.45;13.75;;;31.40;1.00;;;;;;5055604;28;20025;-60
2023/10/20 00:55:54;;;;;;;15.95;13.00;;;31.30;1.00;;;;;;5061201;28;20105;-60
2023/10/20 00:58:32;;;;;;;14.95;12.88;;;31.30;1.00;;;;;;5072146;28;20059;-60
2023/10/20 01:00:58;;;;;;;16.02;14.07;;;31.30;1.00;;;;;;5070712;28;20131;-60
2023/10/20 01:03:24;;;;;;;14.38;12.82;;;31.30;1.00;;;;;;5070847;28;20493;-60
2023/10/20 01:05:51;;;;;;;16.35;14.50;;;31.30;1.00;;;;;;5072288;28;20048;-60
2023/10/20 01:08:17;;;;;;;15.52;13.05;;;31.30;1.00;;;;;;5054249;28;20025;-60
2023/10/20 01:10:43;;;;;;;18.23;14.02;;;31.30;1.00;;;;;;5058290;28;20028;-60
2023/10/20 01:13:08;;;;;;;16.63;13.77;;;31.30;1.00;;;;;;5072549;28;20032;-60
2023/10/20 01:15:35;;;;;;;15.23;13.20;;;31.30;1.00;;;;;;5072132;28;20458;-60
2023/10/20 01:18:01;;;;;;;13.70;11.35;;;31.30;1.40;;;;;;5063671;28;20017;-60
2023/10/20 01:20:26;;;;;;;15.00;13.25;;;31.10;1.00;;;;;;5063499;28;20528;-60
2023/10/20 01:22:52;;;;;;;14.27;11.38;;;31.20;1.00;;;;;;5069437;28;20024;-60
2023/10/20 01:25:18;;;;;;;14.18;11.98;;;31.20;1.00;;;;;;5070957;28;20124;-60
2023/10/20 01:27:43;;;;;;;13.93;12.43;;;31.20;1.00;;;;;;5052281;28;20020;-60
2023/10/20 01:30:12;;;;;;;13.70;12.30;;;31.20;1.00;;;;;;5070789;28;20040;-60
2023/10/20 01:32:40;;;;;;;13.07;11.23;;;31.20;1.00;;;;;;5070533;28;20033;-60
2023/10/20 01:35:06;;;;;;;15.30;13.07;;;31.20;1.00;;;;;;5070702;28;20070;-60
2023/10/20 01:37:32;;;;;;;14.35;12.45;;;31.30;1.00;;;;;;5071495;28;20428;-60
2023/10/20 01:39:58;;;;;;;14.18;12.25;;;31.20;1.00;;;;;;5069876;28;20175;-60
2023/10/20 01:42:23;;;;;;;15.98;13.05;;;31.30;1.00;;;;;;5071798;28;20458;-60
2023/10/20 01:44:49;;;;;;;12.23;10.88;;;31.20;1.00;;;;;;5071929;28;20033;-60
2023/10/20 01:47:14;;;;;;;12.35;11.15;;;31.20;1.00;;;;;;5071858;28;20032;-60
2023/10/20 01:49:40;;;;;;;13.68;11.55;;;31.00;1.00;;;;;;5072119;28;20078;-60
2023/10/20 01:52:06;;;;;;;12.98;11.43;;;31.20;1.00;;;;;;5071835;28;20397;-60
2023/10/20 01:54:31;;;;;;;13.20;11.80;;;31.10;1.00;;;;;;5071868;28;20037;-60
2023/10/20 01:56:57;;;;;;;12.80;10.48;;;31.10;1.00;;;;;;5071909;28;20327;-60
2023/10/20 01:59:22;;;;;;;11.43;10.23;;;31.20;1.00;;;;;;5071617;28;20048;-60
2023/10/20 02:01:48;;;;;;;13.00;10.90;;;31.20;1.00;;;;;;5066924;28;20033;-60
2023/10/20 02:04:14;;;;;;;13.95;10.52;;;31.10;1.00;;;;;;5069198;28;20047;-60
2023/10/20 02:06:40;;;;;;;12.15;10.45;;;31.10;1.00;;;;;;5071789;28;20028;-60
2023/10/20 02:09:15;;;;;;;13.38;11.38;;;31.10;1.00;;;;;;5055432;28;20547;-60
2023/10/20 02:11:46;;;;;;;13.90;11.73;;;31.10;1.00;;;;;;5062927;28;20029;-60
2023/10/20 02:14:25;;;;;;;15.30;11.82;;;31.10;1.00;;;;;;5075270;28;20086;-60
2023/10/20 02:16:52;;;;;;;15.32;11.82;;;31.20;1.00;;;;;;5074026;28;20021;-60
2023/10/20 02:19:17;;;;;;;18.50;12.43;;;31.20;1.00;;;;;;5075416;28;20028;-60
2023/10/20 02:21:43;;;;;;;17.15;12.32;;;31.30;1.00;;;;;;5074462;28;20407;-60
2023/10/20 02:24:09;;;;;;;15.38;10.82;;;31.30;1.00;;;;;;5061976;28;20027;-60
2023/10/20 02:26:40;;;;;;;15.57;11.43;;;31.20;1.00;;;;;;5075109;28;20028;-60
2023/10/20 02:29:06;;;;;;;16.92;11.55;;;31.20;1.00;;;;;;5070976;28;20049;-60
2023/10/20 02:31:31;;;;;;;15.85;11.02;;;31.20;1.00;;;;;;5074740;28;20040;-60
2023/10/20 02:33:57;;;;;;;14.43;11.38;;;31.20;1.00;;;;;;5057206;28;20044;-60
2023/10/20 02:36:24;;;;;;;15.95;10.98;;;31.20;7.00;;;;;;5075067;28;20028;-60
2023/10/20 02:45:36;;;;;;;8.20;7.00;;;31.20;99.90;;;;;;5073557;28;20054;-59
2023/10/20 02:48:17;;;;;;;8.75;7.57;;;31.20;99.90;;;;;;5066586;28;20031;-60
2023/10/20 02:50:43;;;;;;;7.60;6.78;;;31.20;99.90;;;;;;5056610;28;20474;-60
2023/10/20 02:53:08;;;;;;;10.48;8.52;;;31.10;95.50;;;;;;5074685;28;20025;-60
2023/10/20 02:55:34;;;;;;;11.98;8.38;;;31.20;46.50;;;;;;5074873;28;20491;-60
2023/10/20 02:58:00;;;;;;;15.23;8.85;;;31.30;22.60;;;;;;5074644;28;20525;-60
2023/10/20 03:00:28;;;;;;;15.43;9.38;;;31.30;15.00;;;;;;5074359;28;20047;-60
2023/10/20 03:13:26;;;;;;;16.25;10.55;;;31.20;99.90;;;;;;5058357;28;20391;-60
2023/10/20 03:15:52;;;;;;;12.65;8.85;;;31.30;99.90;;;;;;5072664;28;20054;-60
2023/10/20 03:28:24;;;;;;;10.60;7.75;;;31.10;99.90;;;;;;5071584;28;20039;-60
2023/10/20 03:30:50;;;;;;;13.52;8.23;;;31.20;99.90;;;;;;5074175;28;20024;-60
2023/10/20 03:33:16;;;;;;;15.70;9.85;;;31.10;99.90;;;;;;5073842;28;20016;-60
2023/10/20 03:35:42;;;;;;;9.57;6.95;;;31.20;99.90;;;;;;5073879;28;20012;-60
2023/10/20 03:38:09;;;;;;;12.70;8.07;;;31.20;99.90;;;;;;5073711;28;20036;-60
2023/10/20 03:40:40;;;;;;;12.55;8.30;;;31.20;99.90;;;;;;5074011;28;20024;-60
2023/10/20 03:43:08;;;;;;;15.38;8.98;;;31.10;99.90;;;;;;5074040;28;20032;-60
2023/10/20 03:45:51;;;;;;;15.27;9.95;;;31.10;99.90;;;;;;5073778;28;20386;-60
2023/10/20 03:48:19;;;;;;;17.73;11.43;;;31.10;99.90;;;;;;5073649;28;20078;-60
2023/10/20 03:50:47;;;;;;;18.90;10.70;;;31.20;99.90;;;;;;5073784;28;20032;-60
2023/10/20 03:53:23;;;;;;;20.13;11.27;;;31.30;99.90;;;;;;5055552;28;20440;-60
2023/10/20 03:56:06;;;;;;;19.08;10.50;;;31.30;99.90;;;;;;5062953;28;20377;-60
2023/10/20 03:58:33;;;;;;;16.00;10.50;;;31.20;99.90;;;;;;5073497;28;20501;-60
2023/10/20 04:01:02;;;;;;;21.65;13.00;;;31.20;99.90;;;;;;5073267;28;20037;-61
2023/10/20 04:03:30;;;;;;;21.50;12.38;;;31.20;99.90;;;;;;5073442;28;20107;-60
2023/10/20 04:05:56;;;;;;;25.67;12.57;;;31.30;99.90;;;;;;5055390;28;20466;-60
2023/10/20 04:08:23;;;;;;;17.35;10.77;;;31.30;99.90;;;;;;5073395;28;20107;-60
2023/10/20 04:10:48;;;;;;;21.35;11.40;;;31.30;99.90;;;;;;5073424;28;20040;-60
2023/10/20 04:13:14;;;;;;;18.33;11.10;;;31.30;99.90;;;;;;5073622;28;20082;-60
2023/10/20 04:15:42;;;;;;;14.48;9.48;;;31.30;99.90;;;;;;5073009;28;20025;-60
2023/10/20 04:18:08;;;;;;;15.52;10.20;;;31.30;99.90;;;;;;5049676;28;20366;-61
2023/10/20 04:20:41;;;;;;;16.70;10.77;;;31.20;99.90;;;;;;5062540;28;20084;-62
2023/10/20 04:23:07;;;;;;;15.52;10.57;;;31.30;99.90;;;;;;5070362;28;20024;-61
2023/10/20 04:25:39;;;;;;;12.38;9.00;;;31.30;99.90;;;;;;5068846;28;20028;-60
2023/10/20 04:41:55;;;;;;;23.70;12.07;;;31.20;99.90;;;;;;5072004;28;20071;-60
2023/10/20 04:52:37;;;;;;;24.38;14.65;;;31.10;99.90;;;;;;5072245;28;20498;-60
2023/10/20 04:55:26;;;;;;;21.80;14.90;;;31.20;99.90;;;;;;5072111;28;20490;-60
2023/10/20 04:57:52;;;;;;;28.08;15.25;;;31.20;99.90;;;;;;5058885;28;20029;-61
2023/10/20 05:05:39;;;;;;;50.72;24.35;;;31.20;99.90;;;;;;5068244;28;20331;-60
2023/10/20 05:08:17;;;;;;;45.13;22.98;;;31.40;99.90;;;;;;5072585;28;20108;-61
2023/10/20 05:10:47;;;;;;;58.60;27.35;;;31.30;99.90;;;;;;5057939;28;20107;-60
2023/10/20 05:13:12;;;;;;;65.57;30.77;;;31.30;99.90;;;;;;5072512;28;20070;-61
2023/10/20 05:15:41;;;;;;;55.08;27.00;;;31.40;99.90;;;;;;5072111;28;20485;-60
2023/10/20 05:18:12;;;;;;;64.35;29.70;;;31.20;99.90;;;;;;5072070;28;20436;-61
2023/10/20 05:20:40;;;;;;;55.60;27.25;;;31.00;99.90;;;;;;5071837;28;20092;-60
2023/10/20 05:23:06;;;;;;;52.88;28.80;;;30.90;99.90;;;;;;5071913;28;20024;-60
2023/10/20 05:25:35;;;;;;;72.18;35.78;;;30.80;99.90;;;;;;5072109;28;20473;-61
2023/10/20 05:28:07;;;;;;;89.22;39.83;;;31.20;99.90;;;;;;5070658;28;20381;-60
2023/10/20 05:30:33;;;;;;;97.13;45.05;;;31.30;99.90;;;;;;5072138;28;20024;-60
2023/10/20 05:32:58;;;;;;;92.43;43.40;;;31.10;99.90;;;;;;5071984;28;20024;-60
2023/10/20 05:35:24;;;;;;;82.03;41.03;;;31.20;99.90;;;;;;5070669;28;20028;-61
2023/10/20 05:41:31;;;;;;;70.07;37.15;;;31.10;99.90;;;;;;5069743;28;20103;-61
2023/10/20 05:43:56;;;;;;;86.25;41.60;;;31.00;99.90;;;;;;5064745;28;20492;-60
2023/10/20 05:46:22;;;;;;;71.97;37.10;;;31.10;99.90;;;;;;5071241;28;20020;-60
2023/10/20 05:48:48;;;;;;;81.47;41.08;;;31.10;99.90;;;;;;5076253;28;20093;-61
2023/10/20 05:51:13;;;;;;;92.00;44.22;;;31.00;99.90;;;;;;5075924;28;20034;-60
2023/10/20 05:53:39;;;;;;;82.00;40.88;;;31.00;99.90;;;;;;5075214;28;20327;-60
2023/10/20 05:56:05;;;;;;;81.72;42.90;;;31.00;99.90;;;;;;5075749;28;20397;-60
2023/10/20 05:58:33;;;;;;;87.45;44.33;;;31.10;99.90;;;;;;5075935;28;20017;-60
2023/10/20 06:01:18;;;;;;;100.03;46.40;;;31.10;99.90;;;;;;5075536;28;20527;-61
2023/10/20 06:03:44;;;;;;;85.43;43.78;;;31.10;99.90;;;;;;5075860;28;20028;-61
2023/10/20 06:09:31;;;;;;;77.18;41.95;;;31.10;99.90;;;;;;5071971;28;20048;-60
2023/10/20 06:11:56;;;;;;;82.85;43.65;;;31.10;99.90;;;;;;5074420;28;20567;-60
2023/10/20 06:14:23;;;;;;;87.18;44.25;;;31.20;99.90;;;;;;5044309;28;20086;-61
2023/10/20 06:16:49;;;;;;;89.75;46.63;;;31.20;99.90;;;;;;5075248;28;20031;-60
2023/10/20 06:19:15;;;;;;;78.47;42.25;;;31.30;99.90;;;;;;5075196;28;20032;-60
2023/10/20 06:21:42;;;;;;;80.00;42.88;;;31.20;99.90;;;;;;5075449;28;20417;-60
2023/10/20 06:24:08;;;;;;;80.03;42.90;;;31.20;99.90;;;;;;5075037;28;20108;-60
2023/10/20 06:26:34;;;;;;;69.35;41.40;;;31.40;99.90;;;;;;5075077;28;20071;-60
2023/10/20 06:29:00;;;;;;;74.55;41.17;;;31.30;99.90;;;;;;5060858;28;20032;-61
2023/10/20 06:34:09;;;;;;;69.85;39.75;;;31.40;99.90;;;;;;5074970;28;20040;-61
2023/10/20 06:36:37;;;;;;;64.88;38.42;;;31.40;99.90;;;;;;5075017;28;20025;-61
2023/10/20 06:39:03;;;;;;;69.65;38.75;;;31.40;99.90;;;;;;5074910;28;20021;-61
2023/10/20 06:41:29;;;;;;;63.58;37.22;;;31.40;99.90;;;;;;5074837;28;20021;-57
2023/10/20 06:43:55;;;;;;;72.22;39.22;;;31.40;99.90;;;;;;5074862;28;20020;-55
2023/10/20 06:46:22;;;;;;;60.92;36.83;;;31.50;99.90;;;;;;5074867;28;20130;-57
2023/10/20 06:48:47;;;;;;;64.65;37.65;;;31.50;99.90;;;;;;5056673;28;20031;-56
2023/10/20 06:51:14;;;;;;;64.80;35.80;;;31.50;99.90;;;;;;5065894;28;20024;-56
2023/10/20 06:57:02;;;;;;;63.38;35.95;;;31.50;99.90;;;;;;5070473;28;20039;-58
2023/10/20 06:59:27;;;;;;;56.63;32.63;;;31.50;99.90;;;;;;5074470;28;20127;-58
2023/10/20 07:02:00;;;;;;;55.15;33.10;;;31.50;99.90;;;;;;5075010;28;20497;-58
2023/10/20 07:07:47;;;;;;;54.75;31.80;;;31.60;99.90;;;;;;5072755;28;20031;-57
2023/10/20 07:10:13;;;;;;;49.40;32.55;;;31.60;99.90;;;;;;5074536;28;20016;-58
2023/10/20 07:12:38;;;;;;;57.50;33.35;;;31.60;99.90;;;;;;5074518;28;20047;-57
2023/10/20 07:15:05;;;;;;;51.53;31.25;;;31.60;99.90;;;;;;5071587;28;20115;-63
2023/10/20 07:17:32;;;;;;;47.97;31.73;;;31.60;99.90;;;;;;5069315;28;20043;-66
2023/10/20 07:20:04;;;;;;;55.03;30.55;;;31.60;99.90;;;;;;5060258;28;20029;-62
2023/10/20 07:22:31;;;;;;;59.67;31.83;;;31.60;99.90;;;;;;5064469;28;20029;-63
2023/10/20 07:24:57;;;;;;;53.95;30.63;;;31.70;99.90;;;;;;5054157;28;20033;-62
2023/10/20 07:27:23;;;;;;;57.05;32.22;;;31.60;99.90;;;;;;5067078;28;20024;-62
2023/10/20 07:30:10;;;;;;;57.90;34.42;;;31.80;99.90;;;;;;5056216;28;20049;-61
2023/10/20 07:32:43;;;;;;;56.78;30.27;;;31.90;99.90;;;;;;5071999;28;20027;-60
2023/10/20 07:35:11;;;;;;;58.65;32.42;;;31.80;99.90;;;;;;5073361;28;20036;-62
2023/10/20 07:37:37;;;;;;;49.40;29.83;;;31.80;99.90;;;;;;5070832;28;20020;-61
2023/10/20 07:40:04;;;;;;;43.42;27.17;;;31.80;99.90;;;;;;5052173;28;20115;-61
2023/10/20 07:42:31;;;;;;;43.78;26.58;;;31.80;99.90;;;;;;5054772;28;20033;-60
2023/10/20 07:44:58;;;;;;;51.10;29.23;;;31.80;99.90;;;;;;5073467;28;20422;-63
2023/10/20 07:47:36;;;;;;;45.90;27.63;;;31.80;99.90;;;;;;5064453;28;20529;-61
2023/10/20 07:50:02;;;;;;;44.35;26.23;;;31.70;99.90;;;;;;5060126;28;20029;-61
2023/10/20 07:52:28;;;;;;;46.92;27.05;;;31.80;99.90;;;;;;5061017;28;20032;-60
2023/10/20 07:54:54;;;;;;;56.72;26.48;;;31.80;99.90;;;;;;5061512;28;20075;-61
2023/10/20 07:57:20;;;;;;;41.42;24.92;;;31.80;99.90;;;;;;5071959;28;20016;-60
2023/10/20 07:59:46;;;;;;;41.17;24.67;;;31.80;99.90;;;;;;5071260;28;20072;-61
2023/10/20 08:02:12;;;;;;;46.30;26.77;;;31.90;99.90;;;;;;5073373;28;20044;-64
2023/10/20 08:05:15;;;;;;;40.95;25.88;;;31.80;99.90;;;;;;5068328;28;20157;-63
2023/10/20 08:07:42;;;;;;;43.88;26.98;;;31.90;99.90;;;;;;5064302;28;20085;-71
2023/10/20 08:10:08;;;;;;;43.88;25.05;;;32.10;99.90;;;;;;5065140;28;20025;-66
2023/10/20 08:12:33;;;;;;;50.03;25.05;;;32.10;99.90;;;;;;5066649;28;20051;-68
2023/10/20 08:15:02;;;;;;;43.63;25.48;;;32.10;99.90;;;;;;5070456;28;20082;-65
2023/10/20 08:17:28;;;;;;;40.92;21.90;;;32.00;99.90;;;;;;5065845;28;20115;-63
2023/10/20 08:19:55;;;;;;;36.22;22.67;;;32.00;99.90;;;;;;5059402;28;20052;-63
2023/10/20 08:22:21;;;;;;;40.60;22.00;;;31.90;99.90;;;;;;5058627;28;20036;-68
2023/10/20 08:24:46;;;;;;;33.00;19.85;;;31.90;99.90;;;;;;5054655;28;20032;-63
2023/10/20 08:27:14;;;;;;;35.72;20.35;;;31.90;99.90;;;;;;5064557;28;20115;-61
2023/10/20 08:29:56;;;;;;;38.58;20.55;;;31.80;99.90;;;;;;5066245;28;20017;-63
2023/10/20 08:32:25;;;;;;;35.80;21.77;;;31.80;99.90;;;;;;5057549;28;20074;-73
2023/10/20 08:34:51;;;;;;;35.63;18.90;;;31.90;99.90;;;;;;5052392;28;20033;-65
2023/10/20 08:37:59;;;;;;;34.28;19.70;;;31.80;99.90;;;;;;5063729;28;20031;-64
2023/10/20 08:40:25;;;;;;;39.15;20.30;;;31.90;99.90;;;;;;5056643;28;20502;-68
2023/10/20 08:42:51;;;;;;;37.15;21.15;;;31.90;99.90;;;;;;5055118;28;20097;-68
2023/10/20 08:45:19;;;;;;;45.30;23.25;;;31.90;99.90;;;;;;5072796;28;20023;-81
2023/10/20 08:47:45;;;;;;;40.47;22.88;;;32.10;99.90;;;;;;5062938;28;20021;-67
2023/10/20 08:50:13;;;;;;;42.22;23.05;;;32.20;99.90;;;;;;5070886;28;20029;-66
2023/10/20 08:52:39;;;;;;;46.80;21.50;;;32.20;99.90;;;;;;5053022;28;20020;-60
2023/10/20 08:55:07;;;;;;;33.42;19.08;;;32.00;99.90;;;;;;5053596;28;20068;-63
2023/10/20 08:57:33;;;;;;;32.95;18.67;;;31.80;99.90;;;;;;5071763;28;20417;-59
2023/10/20 08:59:58;;;;;;;41.72;20.25;;;31.80;99.90;;;;;;5071620;28;20049;-57
2023/10/20 09:02:34;;;;;;;31.70;19.10;;;31.80;99.90;;;;;;5054213;28;20024;-54
2023/10/20 09:05:00;;;;;;;35.78;19.30;;;31.80;99.90;;;;;;5039386;28;20073;-68
2023/10/20 09:07:25;;;;;;;50.10;22.63;;;31.80;99.90;;;;;;5065799;28;20036;-65
2023/10/20 09:09:53;;;;;;;36.72;23.65;;;31.80;99.90;;;;;;5064886;28;20084;-60
2023/10/20 09:12:18;;;;;;;38.80;20.88;;;31.90;99.90;;;;;;5072153;28;20025;-61
2023/10/20 09:14:44;;;;;;;43.70;22.92;;;31.70;99.90;;;;;;5072244;28;20480;-61
2023/10/20 09:17:33;;;;;;;42.70;24.30;;;32.10;99.90;;;;;;5071926;28;20458;-64
2023/10/20 09:20:12;;;;;;;41.50;22.55;;;32.20;99.90;;;;;;5072050;28;20017;-64
2023/10/20 09:22:38;;;;;;;41.75;23.17;;;32.20;99.90;;;;;;5066302;28;20063;-62
2023/10/20 09:25:10;;;;;;;42.42;22.90;;;32.30;99.90;;;;;;5062243;28;20029;-65
2023/10/20 09:27:37;;;;;;;37.80;21.40;;;32.20;99.90;;;;;;5070462;28;20036;-64
2023/10/20 09:30:14;;;;;;;34.88;20.27;;;32.10;99.90;;;;;;5072179;28;20017;-65
2023/10/20 09:32:39;;;;;;;37.35;19.80;;;32.00;99.90;;;;;;5071817;28;20064;-61
2023/10/20 09:35:06;;;;;;;43.67;20.70;;;32.10;99.90;;;;;;5071677;28;20121;-61
2023/10/20 09:37:33;;;;;;;35.05;20.83;;;32.10;99.90;;;;;;5066935;28;20033;-61
2023/10/20 09:40:09;;;;;;;40.95;19.88;;;32.00;99.90;;;;;;5066125;28;20079;-64
2023/10/20 09:43:16;;;;;;;33.47;18.30;;;32.00;99.90;;;;;;5068962;28;20023;-67
2023/10/20 09:45:45;;;;;;;32.80;19.55;;;32.10;99.90;;;;;;5065632;28;20032;-64
2023/10/20 09:48:19;;;;;;;34.00;19.80;;;32.20;99.90;;;;;;5070093;28;20091;-68
2023/10/20 09:50:46;;;;;;;34.10;18.13;;;32.30;99.90;;;;;;5070521;28;20024;-67
2023/10/20 09:53:17;;;;;;;33.38;17.77;;;32.20;73.00;;;;;;5071103;28;20293;-71
2023/10/20 09:55:45;;;;;;;32.72;18.58;;;32.20;38.60;;;;;;5071570;28;20048;-66
2023/10/20 10:08:31;;;;;;;;;;;;;;;;;;5058177;28;20087;-65
2023/10/20 10:10:57;;;;;;;24.73;16.52;;;;;;;;;;5047250;28;19995;-63
2023/10/20 10:13:33;;;;;;;28.55;16.52;;;;;;;;;;5040519;28;20535;-60
2023/10/20 10:16:09;;;;;;;33.42;17.08;;;;;;;;;;5049043;28;20037;-63
2023/10/20 10:18:45;;;;;;;30.58;16.65;;;;;;;;;;5037286;28;20491;-64
2023/10/20 10:21:24;;;;;;;30.45;17.00;;;31.90;1.00;;;;;;5051590;28;20013;-63
2023/10/20 10:24:19;;;;;;;30.30;15.95;;;32.00;8.10;;;;;;5050708;28;20074;-64
2023/10/20 10:27:02;;;;;;;36.07;16.37;;;31.80;1.00;;;;;;5051245;28;20056;-64
2023/10/20 10:30:09;;;;;;;24.13;14.27;;;31.80;1.00;;;;;;5051895;28;20036;-57
2023/10/20 10:32:44;;;;;;;33.38;16.90;;;31.80;1.00;;;;;;5054398;28;20021;-69
2023/10/20 10:35:16;;;;;;;30.35;16.73;;;32.10;1.00;;;;;;5051433;28;20044;-59
2023/10/20 10:37:52;;;;;;;28.35;16.48;;;32.00;1.00;;;;;;5047619;28;20479;-59
2023/10/20 10:40:22;;;;;;;33.83;18.40;;;32.00;1.00;;;;;;5049441;28;20108;-59
2023/10/20 10:42:49;;;;;;;31.83;20.40;;;32.20;1.00;;;;;;5053528;28;20017;-59
2023/10/20 10:45:42;;;;;;;32.20;17.42;;;32.20;1.00;;;;;;5054906;28;20029;-59
2023/10/20 10:48:09;;;;;;;31.75;19.67;;;32.30;1.00;;;;;;5047429;28;20123;-59
2023/10/20 10:50:40;;;;;;;33.45;17.45;;;32.20;1.00;;;;;;5054484;28;20029;-57
2023/10/20 10:53:07;;;;;;;29.60;18.17;;;32.00;1.00;;;;;;5057547;28;20426;-57
2023/10/20 10:55:36;;;;;;;31.75;18.63;;;;;;;;;;5054584;28;20354;-58
2023/10/20 10:58:03;;;;;;;34.65;19.02;;;;;;;;;;5055550;28;20009;-58
2023/10/20 11:00:29;;;;;;;37.13;20.80;;;;;;;;;;5054334;28;20032;-59
2023/10/20 11:02:57;;;;;;;34.97;19.55;;;;;;;;;;5053877;28;20150;-58
2023/10/20 14:17:26;;;;;;;24.20;10.80;;;33.70;1.00;;;;;;5048420;28;20058;-60
2023/10/20 14:19:52;;;;;;;16.55;10.10;;;;;;;;;;5075350;28;20032;-55
2023/10/20 14:22:18;;;;;;;17.58;10.13;;;;;;;;;;5072240;28;20467;-59
2023/10/20 14:24:44;;;;;;;21.65;10.27;;;;;;;;;;5074528;28;20027;-60
2023/10/20 14:27:10;;;;;;;24.90;10.40;;;;;;;;;;5060411;28;20354;-59
2023/10/20 14:29:36;;;;;;;19.75;9.55;;;;;;;;;;5075094;28;20104;-63
2023/10/20 14:32:02;;;;;;;17.20;8.98;;;;;;;;;;5074636;28;20020;-52
2023/10/20 14:34:28;;;;;;;18.27;7.97;;;;;;;;;;5074536;28;20036;-57
2023/10/20 14:40:22;;;;;;;14.23;7.07;;;;;;;;;;5072893;28;20039;-56
2023/10/20 14:42:48;;;;;;;13.40;6.20;;;;;;;;;;5074346;28;20020;-53
2023/10/20 14:45:15;;;;;;;10.18;5.80;;;;;;;;;;5073299;28;20123;-51
2023/10/20 14:47:41;;;;;;;14.15;7.43;;;;;;;;;;5075072;28;20059;-61
2023/10/20 14:50:07;;;;;;;12.65;5.78;;;;;;;;;;5074513;28;20040;-56
2023/10/20 14:52:33;;;;;;;11.43;5.32;;;;;;;;;;5074566;28;20095;-59
2023/10/20 14:54:59;;;;;;;8.38;5.45;;;;;;;;;;5074763;28;20147;-59
2023/10/20 14:57:25;;;;;;;14.40;5.95;;;;;;;;;;5074582;28;20099;-59
2023/10/20 15:00:28;;;;;;;10.43;6.10;;;;;;;;;;5073870;28;20132;-59
2023/10/20 15:02:54;;;;;;;12.35;6.38;;;;;;;;;;5073204;28;20043;-59
2023/10/20 15:05:20;;;;;;;9.93;5.53;;;;;;;;;;5074604;28;20021;-61
2023/10/20 15:07:46;;;;;;;12.10;6.88;;;;;;;;;;5060605;28;20351;-60
2023/10/20 15:10:12;;;;;;;10.40;5.95;;;;;;;;;;5074447;28;20024;-61
2023/10/20 15:12:42;;;;;;;8.82;5.45;;;;;;;;;;5074392;28;20048;-59
2023/10/20 15:15:08;;;;;;;12.38;4.57;;;;;;;;;;5069658;28;20124;-58
2023/10/20 15:17:35;;;;;;;9.80;5.30;;;;;;;;;;5062647;28;20048;-53
2023/10/20 15:20:01;;;;;;;11.77;5.38;;;;;;;;;;5070555;28;20028;-58
2023/10/20 15:22:28;;;;;;;7.97;6.13;;;;;;;;;;5073784;28;20117;-57
2023/10/20 15:24:54;;;;;;;12.43;5.82;;;;;;;;;;5067109;28;20032;-56
2023/10/20 15:27:20;;;;;;;6.15;3.20;;;;;;;;;;5062018;28;20032;-57
2023/10/20 15:29:46;;;;;;;5.47;2.72;;;;;;;;;;5067687;28;20032;-64
2023/10/20 15:32:14;;;;;;;7.18;2.45;;;;;;;;;;5066634;28;20024;-63
2023/10/20 15:34:40;;;;;;;7.07;2.60;;;;;;;;;;5073927;28;20037;-56
2023/10/20 15:37:06;;;;;;;4.50;2.35;;;;;;;;;;5073755;28;20120;-62
2023/10/20 15:39:34;;;;;;;1.85;1.17;;;;;;;;;;5059085;28;20033;-59
2023/10/20 15:42:00;;;;;;;4.15;1.55;;;;;;;;;;5074010;28;20095;-56
2023/10/20 15:44:26;;;;;;;4.10;1.50;;;;;;;;;;5073845;28;20111;-59
2023/10/20 15:46:52;;;;;;;2.70;1.08;;;;;;;;;;5073776;28;20028;-55
2023/10/20 15:49:18;;;;;;;3.88;1.20;;;;;;;;;;5073699;28;20025;-61
2023/10/20 15:51:45;;;;;;;3.40;1.35;;;;;;;;;;5073577;28;20025;-59
2023/10/20 15:54:11;;;;;;;4.65;1.50;;;;;;;;;;5073881;28;20025;-73
2023/10/20 15:56:37;;;;;;;3.28;1.10;;;;;;;;;;5073651;28;20056;-47
2023/10/20 15:59:04;;;;;;;3.35;1.17;;;;;;;;;;5073571;28;20028;-50
2023/10/20 16:01:30;;;;;;;3.30;1.70;;;;;;;;;;5073180;28;20107;-51
2023/10/20 16:03:56;;;;;;;7.10;1.65;;;;;;;;;;5073189;28;20050;-50
2023/10/20 16:06:22;;;;;;;4.88;2.50;;;;;;;;;;5073314;28;20051;-44
2023/10/20 16:08:48;;;;;;;5.72;1.95;;;;;;;;;;5072783;28;20371;-45
2023/10/20 16:11:20;;;;;;;3.33;1.58;;;;;;;;;;5072957;28;20100;-45
2023/10/20 16:13:46;;;;;;;5.85;1.77;;;;;;;;;;5072908;28;20016;-45
2023/10/20 16:16:15;;;;;;;4.82;1.55;;;;;;;;;;5072900;28;20033;-46
2023/10/20 16:18:41;;;;;;;5.63;1.70;;;;;;;;;;5072579;28;20040;-45
2023/10/20 16:21:08;;;;;;;5.18;1.38;;;;;;;;;;5072826;28;20194;-46
2023/10/20 16:23:34;;;;;;;3.88;1.38;;;;;;;;;;5070271;28;20052;-49
2023/10/20 16:26:02;;;;;;;6.88;1.20;;;;;;;;;;5059640;28;20035;-47
2023/10/20 16:28:28;;;;;;;3.92;1.90;;;;;;;;;;5070451;28;20405;-48
2023/10/20 16:30:54;;;;;;;3.88;1.55;;;;;;;;;;5068767;28;20025;-45
2023/10/20 16:33:42;;;;;;;3.80;1.83;;;;;;;;;;5072948;28;20126;-45
2023/10/20 16:36:07;;;;;;;5.10;2.58;;;33.90;1.00;;;;;;5069311;28;20614;-45
2023/10/20 16:38:33;;;;;;;4.72;1.73;;;33.60;1.00;;;;;;5050349;28;20111;-46
2023/10/20 16:40:59;;;;;;;3.72;1.65;;;33.50;1.00;;;;;;5072601;28;20021;-44
2023/10/20 16:43:26;;;;;;;6.13;2.63;;;33.60;1.00;;;;;;5072391;28;20020;-46
2023/10/20 16:45:52;;;;;;;3.50;2.38;;;33.50;1.00;;;;;;5072084;28;20105;-44
2023/10/20 16:48:18;;;;;;;5.68;2.63;;;33.60;1.00;;;;;;5072390;28;20407;-47
2023/10/20 16:50:44;;;;;;;6.32;2.30;;;33.50;1.00;;;;;;5072195;28;20028;-46
2023/10/20 16:53:10;;;;;;;4.22;3.00;;;33.50;1.00;;;;;;5072034;28;20051;-46
2023/10/20 16:55:37;;;;;;;6.15;2.97;;;33.50;1.00;;;;;;5072020;28;20421;-46
2023/10/20 16:58:03;;;;;;;4.38;2.85;;;33.50;1.00;;;;;;5057966;28;20469;-46
2023/10/20 17:00:30;;;;;;;4.47;3.05;;;33.50;1.00;;;;;;5071986;28;20078;-46
2023/10/20 17:02:56;;;;;;;7.90;3.47;;;33.40;1.00;;;;;;5071888;28;20082;-48
2023/10/20 17:05:22;;;;;;;5.82;3.20;;;33.40;1.00;;;;;;5071956;28;20477;-49
2023/10/20 17:07:48;;;;;;;6.28;3.47;;;33.40;1.00;;;;;;5071980;28;20497;-46
2023/10/20 17:10:14;;;;;;;8.23;3.42;;;33.40;1.00;;;;;;5071965;28;20036;-46
2023/10/20 17:12:40;;;;;;;3.65;3.15;;;33.40;1.00;;;;;;5062861;28;20435;-47
2023/10/20 17:15:06;;;;;;;7.07;3.47;;;33.30;1.00;;;;;;5071762;28;20115;-46
2023/10/20 17:17:32;;;;;;;5.90;3.65;;;33.30;1.00;;;;;;5072056;28;20114;-47
2023/10/20 17:19:57;;;;;;;8.23;3.17;;;33.30;1.00;;;;;;5069795;28;20113;-46
2023/10/20 17:22:23;;;;;;;7.32;3.47;;;33.30;1.00;;;;;;5060177;28;20308;-45
2023/10/20 17:24:49;;;;;;;5.07;3.38;;;33.30;1.00;;;;;;5057412;28;20060;-46
2023/10/20 17:27:14;;;;;;;7.53;3.90;;;33.20;1.00;;;;;;5059577;28;20103;-46
2023/10/20 17:29:40;;;;;;;5.55;3.67;;;33.10;1.00;;;;;;5064755;28;20373;-47
2023/10/20 17:32:06;;;;;;;8.50;3.88;;;;;;;;;;5060479;28;20024;-45
2023/10/20 17:34:32;;;;;;;8.68;5.25;;;;;;;;;;5069950;28;20019;-46
2023/10/20 17:36:58;;;;;;;10.15;5.35;;;;;;;;;;5070663;28;20025;-45
2023/10/20 17:39:24;;;;;;;10.25;5.35;;;;;;;;;;5076249;28;20074;-44
2023/10/20 17:41:50;;;;;;;8.40;4.53;;;;;;;;;;5078647;28;20029;-45